createdAt,value
2022-12-27T00:00:08.084Z,95.42
2022-12-27T00:02:40.691Z,96.13
2022-12-27T00:05:09.020Z,96.05
2022-12-27T00:07:35.955Z,95.82
2022-12-27T00:10:02.469Z,96.06
2022-12-27T00:12:29.872Z,96.59
2022-12-27T00:14:56.362Z,96.68
2022-12-27T00:17:22.886Z,96.33
2022-12-27T00:19:49.442Z,96.58
2022-12-27T00:22:15.921Z,96.77
2022-12-27T00:24:42.658Z,96.22
2022-12-27T00:27:09.112Z,96.54
2022-12-27T00:29:35.581Z,96.87
2022-12-27T00:32:02.293Z,97.33
2022-12-27T00:34:28.842Z,96.89
2022-12-27T00:36:55.341Z,97.08
2022-12-27T00:39:21.971Z,97.27
2022-12-27T00:41:48.424Z,97.62
2022-12-27T00:44:14.954Z,97.39
2022-12-27T00:46:41.485Z,96.94
2022-12-27T00:49:07.940Z,97.55
2022-12-27T00:51:34.702Z,97.50
2022-12-27T00:54:01.233Z,97.04
2022-12-27T00:56:30.210Z,97.48
2022-12-27T00:59:00.148Z,97.10
2022-12-27T01:01:29.075Z,97.52
2022-12-27T01:03:57.405Z,96.76
2022-12-27T01:06:28.755Z,97.53
2022-12-27T01:08:56.089Z,97.03
2022-12-27T01:11:22.801Z,97.27
2022-12-27T01:13:49.359Z,97.39
2022-12-27T01:16:18.356Z,97.86
2022-12-27T01:18:45.667Z,97.63
2022-12-27T01:21:14.803Z,97.67
2022-12-27T01:23:42.178Z,97.01
2022-12-27T01:26:12.157Z,97.31
2022-12-27T01:28:38.766Z,97.15
2022-12-27T01:31:10.739Z,97.56
2022-12-27T01:33:37.693Z,97.30
2022-12-27T01:36:21.493Z,97.54
2022-12-27T01:38:49.076Z,97.71
2022-12-27T01:41:39.361Z,98.04
2022-12-27T01:44:40.486Z,98.03
2022-12-27T01:47:12.977Z,98.37
2022-12-27T01:49:41.952Z,98.02
2022-12-27T01:52:10.487Z,98.37
2022-12-27T01:54:37.084Z,98.45
2022-12-27T01:57:04.789Z,98.48
2022-12-27T01:59:32.975Z,98.38
2022-12-27T02:02:01.259Z,98.62
2022-12-27T02:04:30.523Z,98.73
2022-12-27T02:06:57.613Z,98.40
2022-12-27T02:09:32.998Z,98.63
2022-12-27T02:12:01.955Z,98.76
2022-12-27T02:14:34.205Z,98.62
2022-12-27T02:17:05.488Z,98.71
2022-12-27T02:19:41.136Z,98.54
2022-12-27T02:22:58.277Z,98.41
2022-12-27T02:26:05.949Z,98.58
2022-12-27T02:28:47.555Z,98.68
2022-12-27T02:31:21.951Z,98.72
2022-12-27T02:33:52.489Z,98.62
2022-12-27T02:36:25.755Z,98.76
2022-12-27T02:38:56.335Z,98.92
2022-12-27T02:41:56.278Z,98.75
2022-12-27T02:44:41.632Z,98.92
2022-12-27T02:47:39.316Z,99.06
2022-12-27T02:50:26.211Z,99.10
2022-12-27T02:53:04.617Z,99.05
2022-12-27T02:56:08.005Z,98.91
2022-12-27T02:58:41.891Z,98.98
2022-12-27T03:01:54.228Z,99.19
2022-12-27T03:04:41.453Z,99.18
2022-12-27T03:07:23.030Z,99.35
2022-12-27T03:10:33.815Z,99.04
2022-12-27T03:13:22.028Z,99.40
2022-12-27T03:16:11.658Z,99.55
2022-12-27T03:19:05.765Z,99.36
2022-12-27T03:22:03.773Z,99.40
2022-12-27T03:24:54.156Z,99.55
2022-12-27T03:27:28.405Z,99.81
2022-12-27T03:30:16.285Z,99.79
2022-12-27T03:33:09.711Z,100.00
2022-12-27T03:36:08.330Z,99.52
2022-12-27T03:38:43.232Z,100.00
2022-12-27T03:41:33.105Z,100.00
2022-12-27T03:43:59.602Z,100.00
2022-12-27T03:46:33.777Z,100.00
2022-12-27T03:49:19.963Z,99.73
2022-12-27T03:51:57.325Z,100.00
2022-12-27T03:54:27.979Z,100.00
2022-12-27T03:57:00.883Z,100.00
2022-12-27T03:59:28.538Z,100.00
2022-12-27T04:01:56.113Z,100.00
2022-12-27T04:04:22.797Z,100.00
2022-12-27T04:06:49.645Z,100.00
2022-12-27T04:09:35.049Z,100.00
2022-12-27T04:12:20.211Z,100.00
2022-12-27T04:15:05.058Z,100.00
2022-12-27T04:17:50.580Z,100.00
2022-12-27T04:20:35.741Z,100.00
2022-12-27T04:23:20.801Z,100.00
2022-12-27T04:26:06.808Z,100.00
2022-12-27T04:28:51.985Z,100.00
2022-12-27T04:31:37.270Z,100.00
2022-12-27T04:34:22.372Z,100.00
2022-12-27T04:36:49.009Z,100.00
2022-12-27T04:39:15.901Z,100.00
2022-12-27T04:42:01.473Z,100.00
2022-12-27T04:45:02.959Z,100.00
2022-12-27T04:47:50.074Z,100.00
2022-12-27T04:50:47.543Z,100.00
2022-12-27T04:53:35.437Z,100.00
2022-12-27T04:56:02.974Z,100.00
2022-12-27T04:58:29.630Z,100.00
2022-12-27T05:01:17.779Z,100.00
2022-12-27T05:03:46.564Z,100.00
2022-12-27T05:06:13.478Z,100.00
2022-12-27T05:08:59.232Z,100.00
2022-12-27T05:11:44.365Z,100.00
2022-12-27T05:14:14.273Z,100.00
2022-12-27T05:16:43.427Z,100.00
2022-12-27T05:19:12.100Z,100.00
2022-12-27T05:21:40.447Z,100.00
2022-12-27T05:24:26.294Z,100.00
2022-12-27T05:26:56.076Z,100.00
2022-12-27T05:29:22.515Z,100.00
2022-12-27T05:31:49.102Z,100.00
2022-12-27T05:34:15.705Z,100.00
2022-12-27T05:36:42.206Z,100.00
2022-12-27T05:39:08.656Z,100.00
2022-12-27T05:41:35.076Z,100.00
2022-12-27T05:44:06.791Z,100.00
2022-12-27T05:46:34.044Z,100.00
2022-12-27T05:49:00.579Z,100.00
2022-12-27T05:51:27.063Z,100.00
2022-12-27T05:53:53.724Z,100.00
2022-12-27T05:56:21.943Z,100.00
2022-12-27T05:58:48.772Z,100.00
2022-12-27T06:01:17.505Z,100.00
2022-12-27T06:03:44.640Z,100.00
2022-12-27T06:06:12.432Z,100.00
2022-12-27T06:08:39.453Z,100.00
2022-12-27T06:11:12.063Z,100.00
2022-12-27T06:13:39.924Z,100.00
2022-12-27T06:16:08.239Z,100.00
2022-12-27T06:18:37.007Z,100.00
2022-12-27T06:21:12.092Z,100.00
2022-12-27T06:23:40.298Z,100.00
2022-12-27T06:26:12.988Z,100.00
2022-12-27T06:28:39.847Z,100.00
2022-12-27T06:31:10.109Z,100.00
2022-12-27T06:33:39.429Z,100.00
2022-12-27T06:36:08.168Z,100.00
2022-12-27T06:38:34.860Z,100.00
2022-12-27T06:41:06.937Z,100.00
2022-12-27T06:43:33.731Z,100.00
2022-12-27T06:46:02.795Z,100.00
2022-12-27T06:48:30.014Z,100.00
2022-12-27T06:50:56.625Z,100.00
2022-12-27T06:53:23.349Z,100.00
2022-12-27T06:55:49.872Z,100.00
2022-12-27T06:58:16.432Z,100.00
2022-12-27T07:00:43.254Z,100.00
2022-12-27T07:03:09.884Z,100.00
2022-12-27T07:05:36.657Z,100.00
2022-12-27T07:08:03.620Z,100.00
2022-12-27T07:10:30.232Z,100.00
2022-12-27T07:12:57.292Z,100.00
2022-12-27T07:15:24.174Z,100.00
2022-12-27T07:17:50.731Z,100.00
2022-12-27T07:20:17.405Z,100.00
2022-12-27T07:22:43.933Z,100.00
2022-12-27T07:25:10.409Z,100.00
2022-12-27T07:27:37.486Z,100.00
2022-12-27T07:30:06.150Z,100.00
2022-12-27T07:32:32.705Z,100.00
2022-12-27T07:34:59.295Z,100.00
2022-12-27T07:37:25.729Z,100.00
2022-12-27T07:39:52.250Z,100.00
2022-12-27T07:42:18.706Z,100.00
2022-12-27T07:44:45.569Z,100.00
2022-12-27T07:47:12.155Z,100.00
2022-12-27T07:49:38.653Z,100.00
2022-12-27T07:52:05.177Z,100.00
2022-12-27T07:54:31.698Z,100.00
2022-12-27T07:56:58.245Z,100.00
2022-12-27T07:59:24.759Z,100.00
2022-12-27T08:02:06.795Z,100.00
2022-12-27T08:04:37.184Z,100.00
2022-12-27T08:07:12.525Z,100.00
2022-12-27T08:09:41.689Z,100.00
2022-12-27T08:12:08.900Z,100.00
2022-12-27T08:14:35.742Z,100.00
2022-12-27T08:17:11.652Z,100.00
2022-12-27T08:19:38.094Z,100.00
2022-12-27T08:22:05.296Z,100.00
2022-12-27T08:24:32.665Z,100.00
2022-12-27T08:26:59.602Z,100.00
2022-12-27T08:29:26.093Z,100.00
2022-12-27T08:31:52.624Z,100.00
2022-12-27T08:34:19.102Z,100.00
2022-12-27T08:37:35.728Z,100.00
2022-12-27T08:40:03.137Z,100.00
2022-12-27T08:42:29.837Z,100.00
2022-12-27T08:44:56.335Z,100.00
2022-12-27T08:47:23.015Z,100.00
2022-12-27T08:49:49.576Z,100.00
2022-12-27T08:52:16.093Z,100.00
2022-12-27T08:54:42.677Z,100.00
2022-12-27T08:57:09.182Z,100.00
2022-12-27T08:59:35.852Z,100.00
2022-12-27T09:02:02.685Z,100.00
2022-12-27T09:04:29.274Z,100.00
2022-12-27T09:06:55.763Z,100.00
2022-12-27T09:09:22.310Z,100.00
2022-12-27T09:11:48.812Z,100.00
2022-12-27T09:14:15.420Z,100.00
2022-12-27T09:16:41.926Z,100.00
2022-12-27T09:19:09.582Z,100.00
2022-12-27T09:21:40.970Z,100.00
2022-12-27T09:24:10.915Z,100.00
2022-12-27T09:26:37.943Z,100.00
2022-12-27T09:29:04.742Z,100.00
2022-12-27T09:31:31.998Z,100.00
2022-12-27T09:33:59.245Z,100.00
2022-12-27T09:36:28.657Z,100.00
2022-12-27T09:38:56.689Z,100.00
2022-12-27T09:42:25.991Z,100.00
2022-12-27T09:44:50.982Z,97.88
2022-12-27T09:47:25.455Z,93.44
2022-12-27T09:50:06.446Z,94.24
2022-12-27T09:52:35.874Z,94.21
2022-12-27T09:55:08.193Z,88.20
2022-12-27T09:57:38.509Z,84.88
2022-12-27T10:00:14.553Z,87.09
2022-12-27T10:02:44.325Z,88.05
2022-12-27T10:05:23.661Z,86.88
2022-12-27T10:08:08.734Z,83.42
2022-12-27T10:10:44.300Z,84.52
2022-12-27T10:13:48.005Z,82.74
2022-12-27T10:16:28.680Z,77.64
2022-12-27T10:19:20.380Z,73.54
2022-12-27T10:22:01.989Z,75.62
2022-12-27T10:24:48.948Z,78.46
2022-12-27T10:27:20.676Z,81.20
2022-12-27T10:29:50.661Z,84.97
2022-12-27T10:32:17.283Z,86.95
2022-12-27T10:34:44.115Z,87.29
2022-12-27T10:37:16.014Z,87.81
2022-12-27T10:39:43.836Z,81.37
2022-12-27T10:42:19.053Z,75.49
2022-12-27T10:44:45.522Z,69.72
2022-12-27T10:47:12.996Z,70.93
2022-12-27T10:49:41.158Z,76.96
2022-12-27T10:52:15.290Z,81.42
2022-12-27T10:54:56.420Z,84.69
2022-12-27T10:57:27.948Z,87.07
2022-12-27T11:00:17.862Z,88.98
2022-12-27T11:03:00.741Z,89.59
2022-12-27T11:05:30.060Z,90.55
2022-12-27T11:07:57.290Z,91.15
2022-12-27T11:10:31.283Z,91.23
2022-12-27T11:13:06.031Z,92.01
2022-12-27T11:15:44.693Z,91.80
2022-12-27T11:18:18.693Z,91.08
2022-12-27T11:20:57.640Z,88.95
2022-12-27T11:23:40.828Z,85.44
2022-12-27T11:26:07.723Z,84.11
2022-12-27T11:28:59.406Z,82.80
2022-12-27T11:31:31.900Z,81.85
2022-12-27T11:34:02.948Z,83.65
2022-12-27T11:36:44.947Z,84.50
2022-12-27T11:39:37.061Z,86.76
2022-12-27T11:42:08.037Z,87.66
2022-12-27T11:44:39.854Z,87.23
2022-12-27T11:47:13.428Z,88.63
2022-12-27T11:49:54.318Z,88.13
2022-12-27T11:52:57.888Z,88.14
2022-12-27T11:55:34.929Z,88.84
2022-12-27T11:58:26.277Z,88.47
2022-12-27T12:01:18.009Z,88.51
2022-12-27T12:03:58.946Z,88.65
2022-12-27T12:06:42.631Z,89.78
2022-12-27T12:09:40.100Z,89.96
2022-12-27T12:12:41.760Z,89.98
2022-12-27T12:15:23.597Z,90.73
2022-12-27T12:18:17.005Z,90.60
2022-12-27T12:21:15.770Z,91.13
2022-12-27T12:24:07.304Z,91.51
2022-12-27T12:26:38.983Z,91.97
2022-12-27T12:29:29.307Z,91.32
2022-12-27T12:32:38.526Z,92.06
2022-12-27T12:35:22.195Z,91.53
2022-12-27T12:38:03.522Z,91.74
2022-12-27T12:40:39.043Z,91.48
2022-12-27T12:43:20.434Z,91.47
2022-12-27T12:46:03.317Z,90.89
2022-12-27T12:48:36.343Z,91.00
2022-12-27T12:51:24.836Z,91.04
2022-12-27T12:54:19.374Z,90.48
2022-12-27T12:57:20.362Z,90.89
2022-12-27T13:00:08.746Z,90.92
2022-12-27T13:02:57.355Z,90.93
2022-12-27T13:05:38.628Z,91.31
2022-12-27T13:08:29.364Z,91.72
2022-12-27T13:11:18.237Z,91.03
2022-12-27T13:14:14.336Z,91.45
2022-12-27T13:17:06.507Z,91.08
2022-12-27T13:19:46.398Z,90.78
2022-12-27T13:22:20.382Z,91.53
2022-12-27T13:25:05.098Z,91.19
2022-12-27T13:28:01.047Z,91.78
2022-12-27T13:30:45.602Z,90.95
2022-12-27T13:33:27.758Z,91.94
2022-12-27T13:36:29.468Z,91.71
2022-12-27T13:39:21.233Z,91.81
2022-12-27T13:41:59.642Z,91.48
2022-12-27T13:44:54.048Z,92.24
2022-12-27T13:47:41.398Z,91.57
2022-12-27T13:50:45.252Z,92.08
2022-12-27T13:53:26.667Z,91.11
2022-12-27T13:56:51.892Z,91.74
2022-12-27T13:59:13.276Z,91.78
2022-12-27T14:01:58.735Z,90.79
2022-12-27T14:04:28.790Z,91.28
2022-12-27T14:07:17.114Z,91.07
2022-12-27T14:10:03.145Z,91.24
2022-12-27T14:12:49.973Z,91.45
2022-12-27T14:15:19.978Z,91.56
2022-12-27T14:17:52.210Z,91.75
2022-12-27T14:20:31.084Z,91.87
2022-12-27T14:23:06.509Z,92.17
2022-12-27T14:26:10.807Z,91.73
2022-12-27T14:29:01.306Z,91.41
2022-12-27T14:31:46.180Z,92.48
2022-12-27T14:34:31.742Z,91.85
2022-12-27T14:37:33.486Z,92.98
2022-12-27T14:40:18.514Z,92.23
2022-12-27T14:43:33.467Z,92.88
2022-12-27T14:46:37.534Z,93.51
2022-12-27T14:49:13.008Z,92.34
2022-12-27T14:52:12.577Z,92.55
2022-12-27T14:54:57.527Z,93.27
2022-12-27T14:57:33.835Z,92.73
2022-12-27T15:00:10.062Z,93.48
2022-12-27T15:02:53.929Z,92.98
2022-12-27T15:05:32.506Z,92.92
2022-12-27T15:08:20.799Z,92.51
2022-12-27T15:10:56.609Z,93.25
2022-12-27T15:13:39.198Z,93.26
2022-12-27T15:16:32.731Z,92.57
2022-12-27T15:19:30.224Z,93.29
2022-12-27T15:22:26.843Z,93.16
2022-12-27T15:25:21.126Z,93.28
2022-12-27T15:28:10.049Z,92.89
2022-12-27T15:30:56.231Z,93.10
2022-12-27T15:34:03.540Z,93.49
2022-12-27T15:36:42.651Z,93.38
2022-12-27T15:39:34.056Z,93.37
2022-12-27T15:42:24.670Z,92.76
2022-12-27T15:45:28.609Z,93.80
2022-12-27T15:48:22.297Z,93.94
2022-12-27T15:51:27.130Z,92.95
2022-12-27T15:54:16.166Z,93.97
2022-12-27T15:57:23.437Z,93.89
2022-12-27T15:59:54.327Z,93.82
2022-12-27T16:02:26.060Z,93.92
2022-12-27T16:05:00.225Z,94.04
2022-12-27T16:07:43.538Z,93.92
2022-12-27T16:10:31.309Z,94.13
2022-12-27T16:13:09.638Z,94.16
2022-12-27T16:15:47.600Z,94.44
2022-12-27T16:18:17.825Z,94.45
2022-12-27T16:21:15.539Z,94.18
2022-12-27T16:23:58.891Z,94.46
2022-12-27T16:26:29.251Z,94.17
2022-12-27T16:28:59.833Z,93.88
2022-12-27T16:31:45.192Z,94.11
2022-12-27T16:34:25.206Z,94.32
2022-12-27T16:36:55.104Z,94.35
2022-12-27T16:39:40.071Z,94.27
2022-12-27T16:42:08.850Z,94.45
2022-12-27T16:45:23.085Z,93.89
2022-12-27T16:48:18.469Z,93.45
2022-12-27T16:51:00.444Z,93.50
2022-12-27T16:53:55.126Z,93.56
2022-12-27T16:56:29.882Z,93.46
2022-12-27T16:58:56.931Z,93.86
2022-12-27T17:01:26.618Z,94.07
2022-12-27T17:03:54.919Z,93.51
2022-12-27T17:06:31.773Z,93.93
2022-12-27T17:09:07.997Z,93.63
2022-12-27T17:11:50.246Z,93.29
2022-12-27T17:14:22.276Z,92.59
2022-12-27T17:16:52.894Z,93.22
2022-12-27T17:19:27.329Z,92.97
2022-12-27T17:21:59.998Z,92.45
2022-12-27T17:24:26.523Z,92.83
2022-12-27T17:27:30.648Z,93.08
2022-12-27T17:30:06.234Z,92.52
2022-12-27T17:32:39.475Z,93.10
2022-12-27T17:35:18.156Z,92.82
2022-12-27T17:38:12.511Z,93.37
2022-12-27T17:40:39.106Z,93.13
2022-12-27T17:43:42.936Z,92.97
2022-12-27T17:46:39.052Z,92.40
2022-12-27T17:49:08.608Z,92.44
2022-12-27T17:51:40.442Z,92.94
2022-12-27T17:54:43.198Z,92.62
2022-12-27T17:57:31.381Z,92.37
2022-12-27T17:59:59.113Z,92.26
2022-12-27T18:02:33.044Z,91.58
2022-12-27T18:05:04.064Z,92.30
2022-12-27T18:07:32.702Z,91.99
2022-12-27T18:10:26.306Z,92.79
2022-12-27T18:12:55.313Z,92.05
2022-12-27T18:15:26.873Z,93.10
2022-12-27T18:18:06.036Z,92.06
2022-12-27T18:20:40.369Z,92.29
2022-12-27T18:23:06.706Z,91.95
2022-12-27T18:25:40.374Z,92.57
2022-12-27T18:28:18.160Z,92.49
2022-12-27T18:30:50.456Z,92.61
2022-12-27T18:33:17.263Z,92.24
2022-12-27T18:35:49.289Z,91.79
2022-12-27T18:38:39.802Z,92.35
2022-12-27T18:41:11.105Z,91.72
2022-12-27T18:43:43.412Z,92.50
2022-12-27T18:46:25.978Z,92.10
2022-12-27T18:48:53.240Z,91.72
2022-12-27T18:51:20.302Z,91.82
2022-12-27T18:53:46.804Z,91.82
2022-12-27T18:56:13.214Z,92.66
2022-12-27T18:58:40.082Z,92.24
2022-12-27T19:01:29.300Z,92.56
2022-12-27T19:04:22.305Z,92.33
2022-12-27T19:07:00.536Z,92.38
2022-12-27T19:09:35.218Z,92.66
2022-12-27T19:12:05.586Z,92.44
2022-12-27T19:14:45.960Z,92.55
2022-12-27T19:17:19.714Z,92.04
2022-12-27T19:19:49.849Z,92.48
2022-12-27T19:22:33.069Z,92.78
2022-12-27T19:25:02.457Z,92.01
2022-12-27T19:27:28.997Z,92.40
2022-12-27T19:29:55.496Z,92.87
2022-12-27T19:32:28.851Z,92.40
2022-12-27T19:34:58.367Z,92.92
2022-12-27T19:37:30.405Z,92.47
2022-12-27T19:39:57.615Z,92.02
2022-12-27T19:42:31.289Z,92.26
2022-12-27T19:44:57.923Z,92.35
2022-12-27T19:47:26.289Z,92.09
2022-12-27T19:49:52.799Z,92.13
2022-12-27T19:52:22.914Z,92.09
2022-12-27T19:54:52.040Z,91.77
2022-12-27T19:57:18.908Z,92.10
2022-12-27T19:59:45.338Z,91.72
2022-12-27T20:02:12.149Z,92.19
2022-12-27T20:04:39.210Z,91.26
2022-12-27T20:07:05.907Z,90.71
2022-12-27T20:09:32.373Z,90.99
2022-12-27T20:11:58.864Z,90.22
2022-12-27T20:14:25.582Z,90.33
2022-12-27T20:16:52.128Z,90.30
2022-12-27T20:19:20.078Z,90.57
2022-12-27T20:21:47.229Z,89.73
2022-12-27T20:24:13.911Z,90.07
2022-12-27T20:26:41.138Z,89.66
2022-12-27T20:29:08.221Z,89.73
2022-12-27T20:31:40.452Z,89.63
2022-12-27T20:34:11.013Z,89.47
2022-12-27T20:36:37.493Z,88.97
2022-12-27T20:39:04.227Z,89.37
2022-12-27T20:41:31.259Z,88.87
2022-12-27T20:43:58.339Z,88.74
2022-12-27T20:46:25.757Z,88.61
2022-12-27T20:48:53.728Z,87.82
2022-12-27T20:51:23.367Z,88.18
2022-12-27T20:53:56.065Z,88.37
2022-12-27T20:56:22.979Z,88.49
2022-12-27T20:58:49.683Z,88.38
2022-12-27T21:01:19.927Z,88.42
2022-12-27T21:03:46.956Z,88.12
2022-12-27T21:06:17.106Z,88.31
2022-12-27T21:08:49.129Z,87.73
2022-12-27T21:11:23.990Z,87.65
2022-12-27T21:13:50.762Z,88.24
2022-12-27T21:16:22.584Z,87.32
2022-12-27T21:18:49.485Z,87.78
2022-12-27T21:21:19.698Z,88.40
2022-12-27T21:23:47.531Z,87.69
2022-12-27T21:26:17.419Z,87.87
2022-12-27T21:28:44.331Z,87.93
2022-12-27T21:31:12.614Z,87.30
2022-12-27T21:33:39.585Z,87.53
2022-12-27T21:36:10.417Z,87.77
2022-12-27T21:38:37.032Z,86.88
2022-12-27T21:41:10.216Z,87.79
2022-12-27T21:43:36.799Z,87.65
2022-12-27T21:46:19.808Z,87.63
2022-12-27T21:48:47.512Z,88.22
2022-12-27T21:51:17.161Z,87.81
2022-12-27T21:53:44.284Z,87.47
2022-12-27T21:56:12.201Z,87.77
2022-12-27T21:58:39.698Z,87.84
2022-12-27T22:01:18.496Z,87.39
2022-12-27T22:03:46.826Z,87.36
2022-12-27T22:06:15.274Z,87.61
2022-12-27T22:08:43.206Z,87.27
2022-12-27T22:11:10.654Z,87.56
2022-12-27T22:13:37.896Z,87.08
2022-12-27T22:16:07.300Z,87.77
2022-12-27T22:18:36.219Z,87.59
2022-12-27T22:21:05.928Z,87.08
2022-12-27T22:23:43.520Z,87.86
2022-12-27T22:26:12.608Z,88.25
2022-12-27T22:28:40.199Z,88.20
2022-12-27T22:31:12.415Z,88.85
2022-12-27T22:33:39.320Z,89.53
2022-12-27T22:36:11.952Z,90.31
2022-12-27T22:38:40.620Z,90.83
2022-12-27T22:41:19.392Z,91.11
2022-12-27T22:43:51.378Z,91.81
2022-12-27T22:46:18.694Z,92.16
2022-12-27T22:48:53.133Z,92.90
2022-12-27T22:51:25.648Z,92.49
2022-12-27T22:53:52.589Z,92.87
2022-12-27T22:56:21.901Z,93.46
2022-12-27T22:58:49.034Z,93.61
2022-12-27T23:01:18.912Z,94.48
2022-12-27T23:03:46.117Z,94.20
2022-12-27T23:06:13.774Z,94.88
2022-12-27T23:08:42.092Z,94.67
2022-12-27T23:11:14.273Z,94.65
2022-12-27T23:13:40.802Z,95.18
2022-12-27T23:16:07.742Z,94.81
2022-12-27T23:18:36.561Z,94.82
2022-12-27T23:21:21.456Z,94.90
2022-12-27T23:23:51.706Z,95.38
2022-12-27T23:26:22.230Z,95.74
2022-12-27T23:28:50.611Z,95.99
2022-12-27T23:31:18.034Z,96.04
2022-12-27T23:33:45.040Z,96.22
2022-12-27T23:36:13.266Z,96.27
2022-12-27T23:38:44.159Z,96.76
2022-12-27T23:41:18.710Z,96.38
2022-12-27T23:43:54.569Z,96.26
2022-12-27T23:46:30.885Z,96.33
2022-12-27T23:48:59.030Z,96.37
2022-12-27T23:51:26.356Z,96.80
2022-12-27T23:53:53.042Z,96.91
2022-12-27T23:56:25.276Z,97.21
2022-12-27T23:58:54.283Z,97.14
